sensor_id;sensor_type;location;lat;lon;timestamp;temperature;humidity
2407;DHT22;37709;53.480;9.688;2023-05-20T00:00:13;7.90;91.90
2407;DHT22;37709;53.480;9.688;2023-05-20T00:02:40;7.80;92.10
2407;DHT22;37709;53.480;9.688;2023-05-20T00:05:08;7.60;92.50
2407;DHT22;37709;53.480;9.688;2023-05-20T00:07:36;7.50;93.90
2407;DHT22;37709;53.480;9.688;2023-05-20T00:10:03;7.60;94.80
2407;DHT22;37709;53.480;9.688;2023-05-20T00:12:31;7.60;95.40
2407;DHT22;37709;53.480;9.688;2023-05-20T00:14:58;7.70;95.70
2407;DHT22;37709;53.480;9.688;2023-05-20T00:17:25;7.80;95.90
2407;DHT22;37709;53.480;9.688;2023-05-20T00:19:54;7.80;95.80
2407;DHT22;37709;53.480;9.688;2023-05-20T00:22:21;7.80;96.10
2407;DHT22;37709;53.480;9.688;2023-05-20T00:24:49;7.80;96.20
2407;DHT22;37709;53.480;9.688;2023-05-20T00:27:16;7.70;96.20
2407;DHT22;37709;53.480;9.688;2023-05-20T00:29:43;7.60;96.40
2407;DHT22;37709;53.480;9.688;2023-05-20T00:32:10;7.50;96.70
2407;DHT22;37709;53.480;9.688;2023-05-20T00:34:38;7.50;97.90
2407;DHT22;37709;53.480;9.688;2023-05-20T00:37:05;7.50;98.00
2407;DHT22;37709;53.480;9.688;2023-05-20T00:39:32;7.50;98.30
2407;DHT22;37709;53.480;9.688;2023-05-20T00:42:00;7.40;98.30
2407;DHT22;37709;53.480;9.688;2023-05-20T00:44:29;7.30;98.80
2407;DHT22;37709;53.480;9.688;2023-05-20T00:46:56;7.20;99.40
2407;DHT22;37709;53.480;9.688;2023-05-20T00:49:24;7.20;99.50
2407;DHT22;37709;53.480;9.688;2023-05-20T00:51:51;7.10;99.90
2407;DHT22;37709;53.480;9.688;2023-05-20T00:54:20;7.10;99.90
2407;DHT22;37709;53.480;9.688;2023-05-20T00:56:48;7.00;99.90
2407;DHT22;37709;53.480;9.688;2023-05-20T00:59:15;7.00;99.90
2407;DHT22;37709;53.480;9.688;2023-05-20T01:01:43;7.00;99.90
2407;DHT22;37709;53.480;9.688;2023-05-20T01:04:11;7.00;99.90
2407;DHT22;37709;53.480;9.688;2023-05-20T01:06:38;6.90;99.90
2407;DHT22;37709;53.480;9.688;2023-05-20T01:09:06;6.90;99.90
2407;DHT22;37709;53.480;9.688;2023-05-20T01:11:37;6.80;99.90
2407;DHT22;37709;53.480;9.688;2023-05-20T01:14:07;6.90;99.90
2407;DHT22;37709;53.480;9.688;2023-05-20T01:16:35;6.90;99.90
2407;DHT22;37709;53.480;9.688;2023-05-20T01:19:08;6.90;99.90
2407;DHT22;37709;53.480;9.688;2023-05-20T01:21:40;6.80;99.90
2407;DHT22;37709;53.480;9.688;2023-05-20T01:24:09;6.80;99.90
2407;DHT22;37709;53.480;9.688;2023-05-20T01:26:37;6.70;99.90
2407;DHT22;37709;53.480;9.688;2023-05-20T01:29:05;6.60;99.90
2407;DHT22;37709;53.480;9.688;2023-05-20T01:31:35;6.60;99.90
2407;DHT22;37709;53.480;9.688;2023-05-20T01:34:04;6.60;99.90
2407;DHT22;37709;53.480;9.688;2023-05-20T01:36:32;6.60;99.90
2407;DHT22;37709;53.480;9.688;2023-05-20T01:39:01;6.60;99.90
2407;DHT22;37709;53.480;9.688;2023-05-20T01:41:30;6.50;99.90
2407;DHT22;37709;53.480;9.688;2023-05-20T01:44:00;6.50;99.90
2407;DHT22;37709;53.480;9.688;2023-05-20T01:46:32;6.40;99.90
2407;DHT22;37709;53.480;9.688;2023-05-20T01:49:00;6.40;99.90
2407;DHT22;37709;53.480;9.688;2023-05-20T01:51:27;6.30;99.90
2407;DHT22;37709;53.480;9.688;2023-05-20T01:53:57;6.30;99.90
2407;DHT22;37709;53.480;9.688;2023-05-20T01:56:24;6.30;99.90
2407;DHT22;37709;53.480;9.688;2023-05-20T01:58:51;6.30;99.90
2407;DHT22;37709;53.480;9.688;2023-05-20T02:01:19;6.20;99.90
2407;DHT22;37709;53.480;9.688;2023-05-20T02:03:46;6.20;99.90
2407;DHT22;37709;53.480;9.688;2023-05-20T02:06:13;6.10;99.90
2407;DHT22;37709;53.480;9.688;2023-05-20T02:08:41;6.10;99.90
2407;DHT22;37709;53.480;9.688;2023-05-20T02:11:08;6.00;99.90
2407;DHT22;37709;53.480;9.688;2023-05-20T02:13:36;6.00;99.90
2407;DHT22;37709;53.480;9.688;2023-05-20T02:16:04;5.90;99.90
2407;DHT22;37709;53.480;9.688;2023-05-20T02:18:32;6.00;99.90
2407;DHT22;37709;53.480;9.688;2023-05-20T02:21:02;5.90;99.90
2407;DHT22;37709;53.480;9.688;2023-05-20T02:23:33;5.90;99.90
2407;DHT22;37709;53.480;9.688;2023-05-20T02:26:01;5.80;99.90
2407;DHT22;37709;53.480;9.688;2023-05-20T02:28:29;5.80;99.90
2407;DHT22;37709;53.480;9.688;2023-05-20T02:30:56;5.80;99.90
2407;DHT22;37709;53.480;9.688;2023-05-20T02:33:23;5.80;99.90
2407;DHT22;37709;53.480;9.688;2023-05-20T02:35:51;5.80;99.90
2407;DHT22;37709;53.480;9.688;2023-05-20T02:38:19;5.80;99.90
2407;DHT22;37709;53.480;9.688;2023-05-20T02:40:47;5.80;99.90
2407;DHT22;37709;53.480;9.688;2023-05-20T02:43:15;5.80;99.90
2407;DHT22;37709;53.480;9.688;2023-05-20T02:45:42;5.80;99.90
2407;DHT22;37709;53.480;9.688;2023-05-20T02:48:12;5.80;99.90
2407;DHT22;37709;53.480;9.688;2023-05-20T02:50:40;5.70;99.90
2407;DHT22;37709;53.480;9.688;2023-05-20T02:53:08;5.80;99.90
2407;DHT22;37709;53.480;9.688;2023-05-20T02:55:35;5.80;99.90
2407;DHT22;37709;53.480;9.688;2023-05-20T02:58:03;5.70;99.90
2407;DHT22;37709;53.480;9.688;2023-05-20T03:00:33;5.70;99.90
2407;DHT22;37709;53.480;9.688;2023-05-20T03:03:07;5.70;99.90
2407;DHT22;37709;53.480;9.688;2023-05-20T03:05:36;5.70;99.90
2407;DHT22;37709;53.480;9.688;2023-05-20T03:08:08;5.70;99.90
2407;DHT22;37709;53.480;9.688;2023-05-20T03:10:36;5.70;99.90
2407;DHT22;37709;53.480;9.688;2023-05-20T03:13:06;5.70;99.90
2407;DHT22;37709;53.480;9.688;2023-05-20T03:15:38;5.70;99.90
2407;DHT22;37709;53.480;9.688;2023-05-20T03:18:06;5.70;99.90
2407;DHT22;37709;53.480;9.688;2023-05-20T03:20:35;5.70;99.90
2407;DHT22;37709;53.480;9.688;2023-05-20T03:23:06;5.70;99.90
2407;DHT22;37709;53.480;9.688;2023-05-20T03:25:36;5.70;99.90
2407;DHT22;37709;53.480;9.688;2023-05-20T03:28:04;5.70;99.90
2407;DHT22;37709;53.480;9.688;2023-05-20T03:30:34;5.70;99.90
2407;DHT22;37709;53.480;9.688;2023-05-20T03:33:03;5.80;99.90
2407;DHT22;37709;53.480;9.688;2023-05-20T03:35:32;5.80;99.90
2407;DHT22;37709;53.480;9.688;2023-05-20T03:38:00;5.90;99.90
2407;DHT22;37709;53.480;9.688;2023-05-20T03:40:28;5.90;99.90
2407;DHT22;37709;53.480;9.688;2023-05-20T03:42:55;6.00;99.90
2407;DHT22;37709;53.480;9.688;2023-05-20T03:45:24;6.00;99.90
2407;DHT22;37709;53.480;9.688;2023-05-20T03:47:58;5.90;99.90
2407;DHT22;37709;53.480;9.688;2023-05-20T03:50:25;6.00;99.90
2407;DHT22;37709;53.480;9.688;2023-05-20T03:52:53;6.10;99.90
2407;DHT22;37709;53.480;9.688;2023-05-20T03:55:22;6.10;99.90
2407;DHT22;37709;53.480;9.688;2023-05-20T03:57:51;6.20;99.90
2407;DHT22;37709;53.480;9.688;2023-05-20T04:00:20;6.30;99.90
2407;DHT22;37709;53.480;9.688;2023-05-20T04:02:48;6.40;99.90
2407;DHT22;37709;53.480;9.688;2023-05-20T04:05:18;6.50;99.90
2407;DHT22;37709;53.480;9.688;2023-05-20T04:07:46;6.60;99.90
2407;DHT22;37709;53.480;9.688;2023-05-20T04:10:14;6.70;99.90
2407;DHT22;37709;53.480;9.688;2023-05-20T04:12:41;6.90;99.90
2407;DHT22;37709;53.480;9.688;2023-05-20T04:15:09;7.00;99.90
2407;DHT22;37709;53.480;9.688;2023-05-20T04:17:46;7.10;99.90
2407;DHT22;37709;53.480;9.688;2023-05-20T04:20:15;7.20;99.90
2407;DHT22;37709;53.480;9.688;2023-05-20T04:22:42;7.30;99.90
2407;DHT22;37709;53.480;9.688;2023-05-20T04:25:10;7.40;99.90
2407;DHT22;37709;53.480;9.688;2023-05-20T04:27:38;7.50;99.90
2407;DHT22;37709;53.480;9.688;2023-05-20T04:30:06;7.60;99.90
2407;DHT22;37709;53.480;9.688;2023-05-20T04:32:38;7.70;99.90
2407;DHT22;37709;53.480;9.688;2023-05-20T04:35:05;7.70;99.90
2407;DHT22;37709;53.480;9.688;2023-05-20T04:37:40;7.80;99.90
2407;DHT22;37709;53.480;9.688;2023-05-20T04:40:09;7.80;99.90
2407;DHT22;37709;53.480;9.688;2023-05-20T04:42:36;7.80;99.90
2407;DHT22;37709;53.480;9.688;2023-05-20T04:45:05;7.80;99.90
2407;DHT22;37709;53.480;9.688;2023-05-20T04:47:35;7.90;99.90
2407;DHT22;37709;53.480;9.688;2023-05-20T04:50:07;8.00;99.90
2407;DHT22;37709;53.480;9.688;2023-05-20T04:52:40;8.10;99.90
2407;DHT22;37709;53.480;9.688;2023-05-20T04:55:09;8.20;99.90
2407;DHT22;37709;53.480;9.688;2023-05-20T04:57:37;8.30;99.90
2407;DHT22;37709;53.480;9.688;2023-05-20T05:00:10;8.40;99.90
2407;DHT22;37709;53.480;9.688;2023-05-20T05:02:39;8.50;99.90
2407;DHT22;37709;53.480;9.688;2023-05-20T05:05:07;8.60;99.90
2407;DHT22;37709;53.480;9.688;2023-05-20T05:07:35;8.70;99.90
2407;DHT22;37709;53.480;9.688;2023-05-20T05:10:02;8.70;99.90
2407;DHT22;37709;53.480;9.688;2023-05-20T05:12:32;8.80;99.90
2407;DHT22;37709;53.480;9.688;2023-05-20T05:15:00;8.90;99.90
2407;DHT22;37709;53.480;9.688;2023-05-20T05:17:28;9.00;99.90
2407;DHT22;37709;53.480;9.688;2023-05-20T05:19:57;9.10;99.90
2407;DHT22;37709;53.480;9.688;2023-05-20T05:22:27;9.20;99.90
2407;DHT22;37709;53.480;9.688;2023-05-20T05:24:54;9.30;99.90
2407;DHT22;37709;53.480;9.688;2023-05-20T05:27:22;9.40;99.90
2407;DHT22;37709;53.480;9.688;2023-05-20T05:29:50;9.50;99.90
2407;DHT22;37709;53.480;9.688;2023-05-20T05:32:18;9.60;99.90
2407;DHT22;37709;53.480;9.688;2023-05-20T05:34:46;9.70;99.90
2407;DHT22;37709;53.480;9.688;2023-05-20T05:37:14;9.80;99.90
2407;DHT22;37709;53.480;9.688;2023-05-20T05:39:41;9.80;99.90
2407;DHT22;37709;53.480;9.688;2023-05-20T05:42:08;9.90;99.90
2407;DHT22;37709;53.480;9.688;2023-05-20T05:44:36;10.10;99.90
2407;DHT22;37709;53.480;9.688;2023-05-20T05:47:06;10.20;99.90
2407;DHT22;37709;53.480;9.688;2023-05-20T05:49:34;10.40;99.90
2407;DHT22;37709;53.480;9.688;2023-05-20T05:52:02;10.50;99.90
2407;DHT22;37709;53.480;9.688;2023-05-20T05:54:29;10.60;99.90
2407;DHT22;37709;53.480;9.688;2023-05-20T05:56:57;10.70;99.90
2407;DHT22;37709;53.480;9.688;2023-05-20T05:59:27;10.80;99.90
2407;DHT22;37709;53.480;9.688;2023-05-20T06:01:54;11.00;99.90
2407;DHT22;37709;53.480;9.688;2023-05-20T06:04:21;11.10;99.90
2407;DHT22;37709;53.480;9.688;2023-05-20T06:06:51;11.20;99.90
2407;DHT22;37709;53.480;9.688;2023-05-20T06:09:19;11.40;99.90
2407;DHT22;37709;53.480;9.688;2023-05-20T06:11:47;11.50;99.90
2407;DHT22;37709;53.480;9.688;2023-05-20T06:14:14;11.70;99.90
2407;DHT22;37709;53.480;9.688;2023-05-20T06:16:41;11.90;99.90
2407;DHT22;37709;53.480;9.688;2023-05-20T06:19:09;12.20;99.90
2407;DHT22;37709;53.480;9.688;2023-05-20T06:21:36;12.40;99.90
2407;DHT22;37709;53.480;9.688;2023-05-20T06:24:04;12.70;99.90
2407;DHT22;37709;53.480;9.688;2023-05-20T06:26:34;12.90;99.90
2407;DHT22;37709;53.480;9.688;2023-05-20T06:29:02;13.20;99.90
2407;DHT22;37709;53.480;9.688;2023-05-20T06:31:30;13.80;99.90
2407;DHT22;37709;53.480;9.688;2023-05-20T06:33:57;14.80;99.90
2407;DHT22;37709;53.480;9.688;2023-05-20T07:51:19;16.00;99.90
2407;DHT22;37709;53.480;9.688;2023-05-20T08:18:35;30.60;50.30
2407;DHT22;37709;53.480;9.688;2023-05-20T08:21:05;33.60;41.20
2407;DHT22;37709;53.480;9.688;2023-05-20T08:23:37;32.60;41.80
2407;DHT22;37709;53.480;9.688;2023-05-20T08:26:06;32.40;42.10
2407;DHT22;37709;53.480;9.688;2023-05-20T08:28:37;32.50;41.20
2407;DHT22;37709;53.480;9.688;2023-05-20T08:31:04;32.00;42.40
2407;DHT22;37709;53.480;9.688;2023-05-20T08:33:32;32.60;42.10
2407;DHT22;37709;53.480;9.688;2023-05-20T08:38:28;33.00;41.30
2407;DHT22;37709;53.480;9.688;2023-05-20T08:40:56;30.60;42.80
2407;DHT22;37709;53.480;9.688;2023-05-20T08:43:25;30.30;43.50
2407;DHT22;37709;53.480;9.688;2023-05-20T08:45:52;30.00;44.10
2407;DHT22;37709;53.480;9.688;2023-05-20T08:48:23;30.60;42.80
2407;DHT22;37709;53.480;9.688;2023-05-20T08:50:52;30.00;43.40
2407;DHT22;37709;53.480;9.688;2023-05-20T08:53:22;30.20;43.90
2407;DHT22;37709;53.480;9.688;2023-05-20T08:55:58;30.40;43.20
2407;DHT22;37709;53.480;9.688;2023-05-20T08:58:29;29.70;43.10
2407;DHT22;37709;53.480;9.688;2023-05-20T09:00:56;31.50;43.00
2407;DHT22;37709;53.480;9.688;2023-05-20T09:03:24;31.90;41.00
2407;DHT22;37709;53.480;9.688;2023-05-20T09:05:52;32.40;41.70
2407;DHT22;37709;53.480;9.688;2023-05-20T09:10:54;32.90;40.10
2407;DHT22;37709;53.480;9.688;2023-05-20T09:13:23;34.00;38.60
2407;DHT22;37709;53.480;9.688;2023-05-20T09:15:50;33.70;37.90
2407;DHT22;37709;53.480;9.688;2023-05-20T09:28:09;33.60;37.70
2407;DHT22;37709;53.480;9.688;2023-05-20T09:30:37;35.20;35.30
2407;DHT22;37709;53.480;9.688;2023-05-20T09:35:35;35.20;35.10
2407;DHT22;37709;53.480;9.688;2023-05-20T09:48:03;35.20;35.80
2407;DHT22;37709;53.480;9.688;2023-05-20T09:50:32;32.20;38.20
2407;DHT22;37709;53.480;9.688;2023-05-20T09:53:03;30.30;40.50
2407;DHT22;37709;53.480;9.688;2023-05-20T09:55:31;30.20;39.80
2407;DHT22;37709;53.480;9.688;2023-05-20T09:58:01;30.50;39.70
2407;DHT22;37709;53.480;9.688;2023-05-20T10:00:29;30.50;40.80
2407;DHT22;37709;53.480;9.688;2023-05-20T10:08:20;30.50;40.10
2407;DHT22;37709;53.480;9.688;2023-05-20T10:49:20;25.00;49.00
2407;DHT22;37709;53.480;9.688;2023-05-20T10:51:53;26.80;45.10
2407;DHT22;37709;53.480;9.688;2023-05-20T10:54:21;26.20;45.70
2407;DHT22;37709;53.480;9.688;2023-05-20T10:56:52;26.20;46.10
2407;DHT22;37709;53.480;9.688;2023-05-20T10:59:20;26.50;46.20
2407;DHT22;37709;53.480;9.688;2023-05-20T11:01:48;26.20;46.30
2407;DHT22;37709;53.480;9.688;2023-05-20T11:04:15;26.50;46.60
2407;DHT22;37709;53.480;9.688;2023-05-20T11:06:51;27.20;45.40
2407;DHT22;37709;53.480;9.688;2023-05-20T11:09:23;27.30;44.60
2407;DHT22;37709;53.480;9.688;2023-05-20T12:04:18;25.90;46.20
2407;DHT22;37709;53.480;9.688;2023-05-20T12:06:46;22.90;53.10
2407;DHT22;37709;53.480;9.688;2023-05-20T12:09:13;22.90;52.80
2407;DHT22;37709;53.480;9.688;2023-05-20T12:11:40;22.90;52.50
2407;DHT22;37709;53.480;9.688;2023-05-20T12:14:08;22.70;52.90
2407;DHT22;37709;53.480;9.688;2023-05-20T12:16:37;22.40;53.30
2407;DHT22;37709;53.480;9.688;2023-05-20T12:26:28;22.30;53.20
2407;DHT22;37709;53.480;9.688;2023-05-20T12:36:20;23.30;53.50
2407;DHT22;37709;53.480;9.688;2023-05-20T13:01:02;24.10;50.80
2407;DHT22;37709;53.480;9.688;2023-05-20T13:03:29;25.30;49.80
2407;DHT22;37709;53.480;9.688;2023-05-20T13:05:57;24.90;50.30
2407;DHT22;37709;53.480;9.688;2023-05-20T13:08:25;24.60;51.20
2407;DHT22;37709;53.480;9.688;2023-05-20T13:10:54;24.40;51.20
2407;DHT22;37709;53.480;9.688;2023-05-20T13:13:23;24.10;51.90
2407;DHT22;37709;53.480;9.688;2023-05-20T13:15:50;23.80;52.70
2407;DHT22;37709;53.480;9.688;2023-05-20T13:18:17;24.00;52.80
2407;DHT22;37709;53.480;9.688;2023-05-20T13:20:45;24.20;52.30
2407;DHT22;37709;53.480;9.688;2023-05-20T13:23:12;24.60;52.10
2407;DHT22;37709;53.480;9.688;2023-05-20T13:25:40;24.70;51.20
2407;DHT22;37709;53.480;9.688;2023-05-20T13:28:07;24.80;51.30
2407;DHT22;37709;53.480;9.688;2023-05-20T13:30:35;25.00;51.00
2407;DHT22;37709;53.480;9.688;2023-05-20T13:33:03;26.40;50.00
2407;DHT22;37709;53.480;9.688;2023-05-20T13:35:31;27.00;48.10
2407;DHT22;37709;53.480;9.688;2023-05-20T13:37:58;26.30;48.80
2407;DHT22;37709;53.480;9.688;2023-05-20T13:40:25;25.10;50.20
2407;DHT22;37709;53.480;9.688;2023-05-20T13:42:53;24.20;51.30
2407;DHT22;37709;53.480;9.688;2023-05-20T13:45:21;23.80;52.90
2407;DHT22;37709;53.480;9.688;2023-05-20T13:47:49;24.00;52.80
2407;DHT22;37709;53.480;9.688;2023-05-20T13:50:18;24.30;52.30
2407;DHT22;37709;53.480;9.688;2023-05-20T13:52:46;24.60;52.50
2407;DHT22;37709;53.480;9.688;2023-05-20T13:55:13;25.00;50.30
2407;DHT22;37709;53.480;9.688;2023-05-20T13:57:41;24.70;50.80
2407;DHT22;37709;53.480;9.688;2023-05-20T14:00:09;24.80;51.40
2407;DHT22;37709;53.480;9.688;2023-05-20T14:02:37;24.50;51.30
2407;DHT22;37709;53.480;9.688;2023-05-20T14:05:05;24.00;51.70
2407;DHT22;37709;53.480;9.688;2023-05-20T14:07:34;23.80;52.10
2407;DHT22;37709;53.480;9.688;2023-05-20T14:10:01;23.80;53.00
2407;DHT22;37709;53.480;9.688;2023-05-20T14:12:29;24.00;52.30
2407;DHT22;37709;53.480;9.688;2023-05-20T14:14:56;24.60;52.10
2407;DHT22;37709;53.480;9.688;2023-05-20T14:17:24;24.90;51.20
2407;DHT22;37709;53.480;9.688;2023-05-20T14:19:52;25.60;49.70
2407;DHT22;37709;53.480;9.688;2023-05-20T14:22:20;26.30;49.40
2407;DHT22;37709;53.480;9.688;2023-05-20T14:24:47;27.00;48.90
2407;DHT22;37709;53.480;9.688;2023-05-20T14:27:14;27.70;46.40
2407;DHT22;37709;53.480;9.688;2023-05-20T14:29:42;26.80;48.50
2407;DHT22;37709;53.480;9.688;2023-05-20T14:32:09;27.10;48.00
2407;DHT22;37709;53.480;9.688;2023-05-20T14:34:39;27.30;47.90
2407;DHT22;37709;53.480;9.688;2023-05-20T14:37:06;27.60;47.70
2407;DHT22;37709;53.480;9.688;2023-05-20T14:39:36;26.90;48.10
2407;DHT22;37709;53.480;9.688;2023-05-20T14:42:04;26.10;49.10
2407;DHT22;37709;53.480;9.688;2023-05-20T14:44:32;26.00;49.60
2407;DHT22;37709;53.480;9.688;2023-05-20T14:46:59;25.80;50.30
2407;DHT22;37709;53.480;9.688;2023-05-20T14:49:28;25.70;50.90
2407;DHT22;37709;53.480;9.688;2023-05-20T14:51:55;25.20;50.70
2407;DHT22;37709;53.480;9.688;2023-05-20T14:54:23;24.70;51.90
2407;DHT22;37709;53.480;9.688;2023-05-20T14:56:51;24.90;51.70
2407;DHT22;37709;53.480;9.688;2023-05-20T14:59:18;25.00;51.70
2407;DHT22;37709;53.480;9.688;2023-05-20T15:01:46;24.80;51.50
2407;DHT22;37709;53.480;9.688;2023-05-20T15:04:13;24.70;52.20
2407;DHT22;37709;53.480;9.688;2023-05-20T15:06:41;24.70;52.30
2407;DHT22;37709;53.480;9.688;2023-05-20T15:09:08;24.80;52.40
2407;DHT22;37709;53.480;9.688;2023-05-20T15:11:36;24.70;52.40
2407;DHT22;37709;53.480;9.688;2023-05-20T15:28:52;23.90;53.10
2407;DHT22;37709;53.480;9.688;2023-05-20T15:31:20;20.40;59.90
2407;DHT22;37709;53.480;9.688;2023-05-20T15:33:47;20.10;60.80
2407;DHT22;37709;53.480;9.688;2023-05-20T15:36:15;20.00;61.40
2407;DHT22;37709;53.480;9.688;2023-05-20T15:38:42;20.20;61.20
2407;DHT22;37709;53.480;9.688;2023-05-20T15:41:10;20.60;61.00
2407;DHT22;37709;53.480;9.688;2023-05-20T15:43:39;21.00;60.20
2407;DHT22;37709;53.480;9.688;2023-05-20T15:46:07;21.40;59.30
2407;DHT22;37709;53.480;9.688;2023-05-20T15:48:34;21.70;59.00
2407;DHT22;37709;53.480;9.688;2023-05-20T15:51:04;21.90;58.90
2407;DHT22;37709;53.480;9.688;2023-05-20T15:53:31;22.00;59.20
2407;DHT22;37709;53.480;9.688;2023-05-20T15:55:58;21.80;60.00
2407;DHT22;37709;53.480;9.688;2023-05-20T15:58:26;21.60;61.50
2407;DHT22;37709;53.480;9.688;2023-05-20T16:00:53;21.40;62.70
2407;DHT22;37709;53.480;9.688;2023-05-20T16:03:20;21.30;63.70
2407;DHT22;37709;53.480;9.688;2023-05-20T16:05:48;21.20;64.20
2407;DHT22;37709;53.480;9.688;2023-05-20T16:08:15;21.00;63.50
2407;DHT22;37709;53.480;9.688;2023-05-20T16:10:42;20.60;63.60
2407;DHT22;37709;53.480;9.688;2023-05-20T16:13:09;20.60;64.60
2407;DHT22;37709;53.480;9.688;2023-05-20T16:15:37;20.60;64.60
2407;DHT22;37709;53.480;9.688;2023-05-20T16:18:05;20.50;64.40
2407;DHT22;37709;53.480;9.688;2023-05-20T16:20:32;20.30;64.70
2407;DHT22;37709;53.480;9.688;2023-05-20T16:23:00;20.10;65.40
2407;DHT22;37709;53.480;9.688;2023-05-20T16:25:27;20.00;65.30
2407;DHT22;37709;53.480;9.688;2023-05-20T16:27:55;19.80;65.60
2407;DHT22;37709;53.480;9.688;2023-05-20T16:30:24;19.70;66.00
2407;DHT22;37709;53.480;9.688;2023-05-20T16:32:51;19.80;66.20
2407;DHT22;37709;53.480;9.688;2023-05-20T16:35:19;19.70;67.20
2407;DHT22;37709;53.480;9.688;2023-05-20T16:37:48;19.60;66.90
2407;DHT22;37709;53.480;9.688;2023-05-20T16:40:15;19.40;67.60
2407;DHT22;37709;53.480;9.688;2023-05-20T16:42:42;19.40;67.90
2407;DHT22;37709;53.480;9.688;2023-05-20T16:45:11;19.50;67.90
2407;DHT22;37709;53.480;9.688;2023-05-20T16:47:38;19.40;68.60
2407;DHT22;37709;53.480;9.688;2023-05-20T16:50:06;19.40;69.80
2407;DHT22;37709;53.480;9.688;2023-05-20T16:52:34;19.20;69.40
2407;DHT22;37709;53.480;9.688;2023-05-20T16:55:04;19.10;70.10
2407;DHT22;37709;53.480;9.688;2023-05-20T16:57:34;18.90;70.50
2407;DHT22;37709;53.480;9.688;2023-05-20T17:00:02;18.80;70.90
2407;DHT22;37709;53.480;9.688;2023-05-20T17:02:34;18.60;71.50
2407;DHT22;37709;53.480;9.688;2023-05-20T17:05:03;18.60;71.70
2407;DHT22;37709;53.480;9.688;2023-05-20T17:07:30;18.50;71.90
2407;DHT22;37709;53.480;9.688;2023-05-20T17:09:59;18.60;72.10
2407;DHT22;37709;53.480;9.688;2023-05-20T17:12:27;18.70;72.10
2407;DHT22;37709;53.480;9.688;2023-05-20T17:14:55;18.60;72.00
2407;DHT22;37709;53.480;9.688;2023-05-20T17:17:23;18.60;72.20
2407;DHT22;37709;53.480;9.688;2023-05-20T17:19:50;18.50;72.70
2407;DHT22;37709;53.480;9.688;2023-05-20T17:22:18;18.40;72.70
2407;DHT22;37709;53.480;9.688;2023-05-20T17:24:46;18.40;73.00
2407;DHT22;37709;53.480;9.688;2023-05-20T17:27:13;18.40;73.60
2407;DHT22;37709;53.480;9.688;2023-05-20T17:29:40;18.40;73.70
2407;DHT22;37709;53.480;9.688;2023-05-20T17:32:08;18.30;73.70
2407;DHT22;37709;53.480;9.688;2023-05-20T17:34:36;18.30;74.20
2407;DHT22;37709;53.480;9.688;2023-05-20T17:37:03;18.20;74.30
2407;DHT22;37709;53.480;9.688;2023-05-20T17:39:31;18.10;74.80
2407;DHT22;37709;53.480;9.688;2023-05-20T17:41:58;18.00;75.20
2407;DHT22;37709;53.480;9.688;2023-05-20T17:44:26;17.90;75.50
2407;DHT22;37709;53.480;9.688;2023-05-20T17:46:53;17.80;75.80
2407;DHT22;37709;53.480;9.688;2023-05-20T17:49:21;17.70;76.60
2407;DHT22;37709;53.480;9.688;2023-05-20T17:51:48;17.60;76.90
2407;DHT22;37709;53.480;9.688;2023-05-20T17:54:16;17.50;77.40
2407;DHT22;37709;53.480;9.688;2023-05-20T17:56:43;17.30;77.40
2407;DHT22;37709;53.480;9.688;2023-05-20T17:59:13;17.20;78.00
2407;DHT22;37709;53.480;9.688;2023-05-20T18:01:41;17.20;79.00
2407;DHT22;37709;53.480;9.688;2023-05-20T18:04:09;17.00;79.40
2407;DHT22;37709;53.480;9.688;2023-05-20T18:06:37;16.90;80.30
2407;DHT22;37709;53.480;9.688;2023-05-20T18:09:04;16.90;81.00
2407;DHT22;37709;53.480;9.688;2023-05-20T18:11:32;16.80;81.60
2407;DHT22;37709;53.480;9.688;2023-05-20T18:14:00;16.80;82.60
2407;DHT22;37709;53.480;9.688;2023-05-20T18:16:29;16.70;83.00
2407;DHT22;37709;53.480;9.688;2023-05-20T18:18:57;16.70;83.90
2407;DHT22;37709;53.480;9.688;2023-05-20T18:21:25;16.60;84.80
2407;DHT22;37709;53.480;9.688;2023-05-20T18:23:52;16.50;85.30
2407;DHT22;37709;53.480;9.688;2023-05-20T18:26:20;16.40;86.30
2407;DHT22;37709;53.480;9.688;2023-05-20T18:28:47;16.30;87.40
2407;DHT22;37709;53.480;9.688;2023-05-20T18:31:16;16.20;88.10
2407;DHT22;37709;53.480;9.688;2023-05-20T18:33:43;16.10;88.30
2407;DHT22;37709;53.480;9.688;2023-05-20T18:36:11;16.10;89.30
2407;DHT22;37709;53.480;9.688;2023-05-20T18:38:39;16.00;89.80
2407;DHT22;37709;53.480;9.688;2023-05-20T18:41:08;16.00;90.20
2407;DHT22;37709;53.480;9.688;2023-05-20T18:43:35;15.90;90.50
2407;DHT22;37709;53.480;9.688;2023-05-20T18:46:03;15.90;90.90
2407;DHT22;37709;53.480;9.688;2023-05-20T18:48:30;15.80;91.40
2407;DHT22;37709;53.480;9.688;2023-05-20T18:50:58;15.80;92.10
2407;DHT22;37709;53.480;9.688;2023-05-20T18:53:26;15.70;92.40
2407;DHT22;37709;53.480;9.688;2023-05-20T18:55:53;15.70;93.00
2407;DHT22;37709;53.480;9.688;2023-05-20T18:58:23;15.60;93.50
2407;DHT22;37709;53.480;9.688;2023-05-20T19:00:50;15.60;93.90
2407;DHT22;37709;53.480;9.688;2023-05-20T19:03:18;15.60;94.30
2407;DHT22;37709;53.480;9.688;2023-05-20T19:05:46;15.50;94.70
2407;DHT22;37709;53.480;9.688;2023-05-20T19:08:14;15.50;95.20
2407;DHT22;37709;53.480;9.688;2023-05-20T19:10:41;15.50;95.70
2407;DHT22;37709;53.480;9.688;2023-05-20T19:13:09;15.40;96.10
2407;DHT22;37709;53.480;9.688;2023-05-20T19:15:37;15.40;96.60
2407;DHT22;37709;53.480;9.688;2023-05-20T19:18:05;15.40;97.00
2407;DHT22;37709;53.480;9.688;2023-05-20T19:20:32;15.40;97.20
2407;DHT22;37709;53.480;9.688;2023-05-20T19:23:00;15.30;97.50
2407;DHT22;37709;53.480;9.688;2023-05-20T19:25:29;15.30;97.90
2407;DHT22;37709;53.480;9.688;2023-05-20T19:27:56;15.30;98.20
2407;DHT22;37709;53.480;9.688;2023-05-20T19:30:24;15.30;98.60
2407;DHT22;37709;53.480;9.688;2023-05-20T19:32:51;15.20;99.10
2407;DHT22;37709;53.480;9.688;2023-05-20T19:35:19;15.20;99.40
2407;DHT22;37709;53.480;9.688;2023-05-20T19:37:47;15.20;99.60
2407;DHT22;37709;53.480;9.688;2023-05-20T19:40:15;15.10;99.70
2407;DHT22;37709;53.480;9.688;2023-05-20T19:42:43;15.10;99.90
2407;DHT22;37709;53.480;9.688;2023-05-20T19:45:10;15.00;99.90
2407;DHT22;37709;53.480;9.688;2023-05-20T19:47:38;14.90;99.90
2407;DHT22;37709;53.480;9.688;2023-05-20T19:50:06;14.80;99.90
2407;DHT22;37709;53.480;9.688;2023-05-20T19:52:34;14.80;99.90
2407;DHT22;37709;53.480;9.688;2023-05-20T19:55:02;14.80;99.90
2407;DHT22;37709;53.480;9.688;2023-05-20T19:57:30;14.70;99.90
2407;DHT22;37709;53.480;9.688;2023-05-20T19:59:57;14.70;99.90
2407;DHT22;37709;53.480;9.688;2023-05-20T20:02:25;14.60;99.90
2407;DHT22;37709;53.480;9.688;2023-05-20T20:04:52;14.50;99.90
2407;DHT22;37709;53.480;9.688;2023-05-20T20:07:21;14.50;99.90
2407;DHT22;37709;53.480;9.688;2023-05-20T20:09:50;14.30;99.90
2407;DHT22;37709;53.480;9.688;2023-05-20T20:12:21;14.30;99.90
2407;DHT22;37709;53.480;9.688;2023-05-20T20:14:50;14.20;99.90
2407;DHT22;37709;53.480;9.688;2023-05-20T20:17:18;14.10;99.90
2407;DHT22;37709;53.480;9.688;2023-05-20T20:19:49;14.00;99.90
2407;DHT22;37709;53.480;9.688;2023-05-20T20:22:19;14.10;99.90
2407;DHT22;37709;53.480;9.688;2023-05-20T20:24:47;14.00;99.90
2407;DHT22;37709;53.480;9.688;2023-05-20T20:27:16;14.00;99.90
2407;DHT22;37709;53.480;9.688;2023-05-20T20:29:45;13.90;99.90
2407;DHT22;37709;53.480;9.688;2023-05-20T20:32:12;13.90;99.90